createdAt,value
2017-09-24T00:01:49.899Z,47.77
2017-09-24T00:04:17.502Z,49.27
2017-09-24T00:06:47.048Z,53.03
2017-09-24T00:09:14.771Z,53.78
2017-09-24T00:11:43.647Z,50.87
2017-09-24T00:19:20.884Z,52.38
2017-09-24T00:21:50.405Z,51.20
2017-09-24T00:24:18.065Z,51.23
2017-09-24T00:26:45.814Z,53.30
2017-09-24T00:29:13.519Z,59.10
2017-09-24T00:31:42.157Z,53.50
2017-09-24T00:34:10.095Z,51.90
2017-09-24T00:36:37.956Z,53.77
2017-09-24T00:39:05.455Z,52.67
2017-09-24T00:41:32.958Z,51.77
2017-09-24T00:44:01.382Z,53.43
2017-09-24T00:46:28.886Z,57.27
2017-09-24T00:48:56.794Z,54.47
2017-09-24T00:51:25.121Z,57.30
2017-09-24T00:53:53.043Z,57.17
2017-09-24T00:56:20.599Z,57.23
2017-09-24T00:58:48.110Z,60.27
2017-09-24T01:01:16.989Z,55.53
2017-09-24T01:03:47.821Z,57.30
2017-09-24T01:06:15.715Z,57.60
2017-09-24T01:08:43.802Z,56.40
2017-09-24T01:11:11.293Z,59.43
2017-09-24T01:13:38.793Z,57.43
2017-09-24T01:16:06.308Z,58.17
2017-09-24T01:18:33.791Z,59.80
2017-09-24T01:21:01.702Z,57.10
2017-09-24T01:23:29.201Z,56.20
2017-09-24T01:25:56.706Z,53.40
2017-09-24T01:28:24.206Z,54.63
2017-09-24T01:30:51.754Z,58.33
2017-09-24T01:33:19.246Z,55.80
2017-09-24T01:35:47.130Z,58.73
2017-09-24T01:38:15.070Z,56.40
2017-09-24T01:40:42.968Z,60.33
2017-09-24T01:43:12.004Z,54.77
2017-09-24T01:45:39.509Z,58.53
2017-09-24T01:48:07.438Z,54.67
2017-09-24T01:50:34.943Z,57.30
2017-09-24T01:53:02.460Z,58.30
2017-09-24T01:55:32.551Z,56.95
2017-09-24T01:58:00.716Z,62.50
2017-09-24T02:00:28.397Z,60.08
2017-09-24T02:02:55.895Z,57.57
2017-09-24T02:05:23.424Z,60.55
2017-09-24T02:07:51.849Z,61.33
2017-09-24T02:10:19.386Z,60.00
2017-09-24T02:12:46.901Z,62.47
2017-09-24T02:15:14.382Z,62.13
2017-09-24T02:17:41.934Z,57.85
2017-09-24T02:20:09.430Z,60.72
2017-09-24T02:22:36.953Z,59.75
2017-09-24T02:25:05.375Z,58.80
2017-09-24T02:27:32.956Z,64.70
2017-09-24T02:30:01.406Z,63.25
2017-09-24T02:32:30.033Z,60.33
2017-09-24T02:34:57.541Z,63.17
2017-09-24T02:37:25.878Z,59.05
2017-09-24T02:39:55.134Z,62.50
2017-09-24T02:42:24.372Z,62.80
2017-09-24T02:44:56.326Z,59.67
2017-09-24T02:47:24.634Z,60.10
2017-09-24T02:49:52.586Z,62.08
2017-09-24T02:52:20.075Z,63.28
2017-09-24T02:54:47.638Z,63.00
2017-09-24T02:57:15.138Z,63.47
2017-09-24T02:59:42.652Z,65.40
2017-09-24T03:02:10.170Z,63.87
2017-09-24T03:04:37.655Z,62.33
2017-09-24T03:07:05.601Z,62.47
2017-09-24T03:09:34.769Z,62.87
2017-09-24T03:12:02.290Z,65.32
2017-09-24T03:14:29.791Z,66.37
2017-09-24T03:16:59.810Z,62.83
2017-09-24T03:19:28.260Z,63.60
2017-09-24T03:21:55.774Z,65.28
2017-09-24T03:24:23.305Z,67.60
2017-09-24T03:26:50.798Z,60.20
2017-09-24T03:29:18.307Z,63.43
2017-09-24T03:31:45.818Z,70.10
2017-09-24T03:34:13.311Z,65.50
2017-09-24T03:36:40.798Z,67.30
2017-09-24T03:39:08.310Z,67.03
2017-09-24T03:41:36.756Z,70.83
2017-09-24T03:44:04.234Z,63.77
2017-09-24T03:46:33.870Z,67.12
2017-09-24T03:49:01.386Z,65.40
2017-09-24T03:51:29.286Z,67.68
2017-09-24T03:53:56.796Z,66.30
2017-09-24T03:56:24.302Z,68.60
2017-09-24T03:58:51.812Z,70.40
2017-09-24T04:01:19.338Z,64.87
2017-09-24T04:03:46.825Z,69.67
2017-09-24T04:06:14.340Z,71.95
2017-09-24T04:08:41.840Z,68.93
2017-09-24T04:11:09.332Z,68.82
2017-09-24T04:13:37.236Z,68.03
2017-09-24T04:16:04.721Z,73.03
2017-09-24T04:18:32.239Z,70.87
2017-09-24T04:20:59.734Z,69.85
2017-09-24T04:23:29.191Z,70.85
2017-09-24T04:25:56.698Z,76.20
2017-09-24T04:28:24.595Z,74.62
2017-09-24T04:30:52.539Z,70.78
2017-09-24T04:33:20.447Z,76.72
2017-09-24T04:35:47.965Z,70.28
2017-09-24T04:38:16.426Z,68.82
2017-09-24T04:40:43.944Z,70.12
2017-09-24T04:43:11.458Z,69.25
2017-09-24T04:45:38.967Z,73.50
2017-09-24T04:48:06.487Z,75.00
2017-09-24T04:50:34.392Z,72.22
2017-09-24T04:53:01.918Z,61.93
2017-09-24T04:55:30.773Z,72.70
2017-09-24T04:57:58.281Z,65.50
2017-09-24T05:00:25.787Z,68.18
2017-09-24T05:02:53.718Z,67.70
2017-09-24T05:05:21.206Z,67.00
2017-09-24T05:07:48.740Z,69.70
2017-09-24T05:10:16.255Z,71.35
2017-09-24T05:12:44.241Z,70.40
2017-09-24T05:15:11.762Z,66.87
2017-09-24T05:17:39.265Z,65.03
2017-09-24T05:20:06.779Z,74.82
2017-09-24T05:22:34.270Z,77.15
2017-09-24T05:25:01.778Z,70.35
2017-09-24T05:27:29.282Z,72.62
2017-09-24T05:29:57.162Z,75.20
2017-09-24T05:32:24.678Z,75.65
2017-09-24T05:34:52.178Z,79.77
2017-09-24T05:37:19.682Z,81.10
2017-09-24T05:39:47.174Z,77.78
2017-09-24T05:42:15.082Z,81.80
2017-09-24T05:44:42.572Z,75.35
2017-09-24T05:47:10.154Z,80.90
2017-09-24T05:49:38.066Z,73.35
2017-09-24T05:52:06.494Z,79.50
2017-09-24T05:54:35.354Z,78.87
2017-09-24T05:57:02.853Z,82.18
2017-09-24T05:59:30.369Z,77.47
2017-09-24T06:01:57.865Z,79.18
2017-09-24T06:04:25.778Z,85.93
2017-09-24T06:06:53.268Z,92.57
2017-09-24T06:09:21.746Z,79.43
2017-09-24T06:11:49.258Z,78.78
2017-09-24T06:14:16.759Z,83.97
2017-09-24T06:16:45.170Z,80.00
2017-09-24T06:19:12.686Z,78.72
2017-09-24T06:21:40.178Z,81.15
2017-09-24T06:24:08.094Z,79.55
2017-09-24T06:26:35.607Z,83.28
2017-09-24T06:29:03.117Z,78.18
2017-09-24T06:31:31.562Z,72.85
2017-09-24T06:33:59.094Z,72.12
2017-09-24T06:36:27.578Z,72.05
2017-09-24T06:38:55.498Z,71.37
2017-09-24T06:41:23.008Z,74.05
2017-09-24T06:43:50.527Z,67.95
2017-09-24T06:46:18.025Z,73.82
2017-09-24T06:48:45.534Z,71.05
2017-09-24T06:51:13.064Z,64.40
2017-09-24T06:53:40.566Z,67.12
2017-09-24T06:56:08.718Z,67.53
2017-09-24T06:58:37.973Z,67.57
2017-09-24T07:01:05.478Z,68.15
2017-09-24T07:03:33.491Z,66.55
2017-09-24T07:06:01.003Z,66.30
2017-09-24T07:08:28.541Z,68.17
2017-09-24T07:10:56.042Z,62.57
2017-09-24T07:13:23.549Z,57.13
2017-09-24T07:15:51.069Z,58.97
2017-09-24T07:18:20.107Z,62.07
2017-09-24T07:20:49.600Z,60.23
2017-09-24T07:23:17.084Z,56.53
2017-09-24T07:25:46.590Z,57.93
2017-09-24T07:28:14.082Z,58.57
2017-09-24T07:30:41.983Z,60.37
2017-09-24T07:33:09.486Z,62.10
2017-09-24T07:35:36.997Z,58.87
2017-09-24T07:38:04.967Z,59.70
2017-09-24T07:40:33.430Z,58.80
2017-09-24T07:43:01.326Z,60.90
2017-09-24T07:45:28.807Z,58.27
2017-09-24T07:47:57.129Z,55.47
2017-09-24T07:50:25.018Z,55.47
2017-09-24T07:52:52.547Z,55.30
2017-09-24T07:55:20.519Z,51.43
2017-09-24T07:57:48.460Z,53.70
2017-09-24T08:00:15.942Z,54.30
2017-09-24T08:02:43.490Z,52.90
2017-09-24T08:05:11.835Z,54.15
2017-09-24T08:07:40.342Z,50.85
2017-09-24T08:10:08.258Z,56.37
2017-09-24T08:12:38.271Z,52.67
2017-09-24T08:15:06.875Z,51.83
2017-09-24T08:17:34.361Z,53.13
2017-09-24T08:20:01.855Z,47.03
2017-09-24T08:22:29.434Z,48.50
2017-09-24T08:24:56.991Z,50.47
2017-09-24T08:27:24.510Z,44.00
2017-09-24T08:29:52.426Z,41.73
2017-09-24T08:32:19.938Z,44.43
2017-09-24T08:34:47.502Z,43.60
2017-09-24T08:37:15.387Z,44.13
2017-09-24T08:39:44.814Z,44.50
2017-09-24T08:42:13.322Z,46.30
2017-09-24T08:44:40.832Z,43.70
2017-09-24T08:47:09.258Z,47.60
2017-09-24T08:49:36.790Z,46.37
2017-09-24T08:52:04.278Z,46.87
2017-09-24T08:54:31.785Z,46.97
2017-09-24T08:56:59.277Z,49.80
2017-09-24T08:59:27.674Z,44.40
2017-09-24T09:01:55.154Z,46.77
2017-09-24T09:04:22.670Z,44.73
2017-09-24T09:06:50.155Z,44.10
2017-09-24T09:09:18.058Z,41.80
2017-09-24T09:11:46.511Z,42.47
2017-09-24T09:14:16.354Z,39.57
2017-09-24T09:16:43.855Z,37.57
2017-09-24T09:19:11.404Z,41.07
2017-09-24T09:21:45.847Z,37.07
2017-09-24T09:24:13.745Z,39.87
2017-09-24T09:26:42.242Z,39.50
2017-09-24T09:29:11.207Z,41.90
2017-09-24T09:31:39.543Z,43.90
2017-09-24T09:34:19.746Z,39.60
2017-09-24T09:36:47.238Z,42.37
2017-09-24T09:39:14.739Z,40.30
2017-09-24T09:44:28.375Z,41.77
2017-09-24T09:47:00.361Z,43.63
2017-09-24T09:49:28.786Z,40.63
2017-09-24T09:51:56.282Z,41.73
2017-09-24T09:54:24.199Z,42.20
2017-09-24T09:56:51.730Z,40.13
2017-09-24T09:59:19.241Z,39.20
2017-09-24T10:01:46.787Z,38.07
2017-09-24T10:04:14.318Z,36.83
2017-09-24T10:06:53.706Z,39.63
2017-09-24T10:09:33.727Z,35.13
2017-09-24T10:12:02.183Z,34.17
2017-09-24T10:14:29.690Z,33.50
2017-09-24T10:16:57.203Z,26.90
2017-09-24T10:19:24.711Z,25.10
2017-09-24T10:21:52.214Z,27.33
2017-09-24T10:24:19.732Z,30.03
2017-09-24T10:26:47.220Z,30.80
2017-09-24T10:29:26.712Z,30.40
2017-09-24T10:32:09.702Z,28.63
2017-09-24T10:34:37.745Z,30.00
2017-09-24T10:37:05.240Z,29.40
2017-09-24T10:39:32.807Z,27.77
2017-09-24T10:42:00.305Z,24.13
2017-09-24T10:44:27.818Z,24.00
2017-09-24T10:46:55.305Z,24.30
2017-09-24T10:49:22.814Z,24.97
2017-09-24T10:51:51.517Z,26.20
2017-09-24T10:54:19.052Z,23.90
2017-09-24T10:56:46.534Z,22.77
2017-09-24T10:59:14.606Z,21.30
2017-09-24T11:01:42.169Z,20.80
2017-09-24T11:04:11.510Z,21.87
2017-09-24T11:06:40.404Z,21.80
2017-09-24T11:09:10.271Z,22.03
2017-09-24T11:11:38.796Z,21.60
2017-09-24T11:14:06.718Z,20.83
2017-09-24T11:16:34.715Z,20.30
2017-09-24T11:19:02.627Z,20.30
2017-09-24T11:21:30.174Z,20.00
2017-09-24T11:23:58.631Z,24.00
2017-09-24T11:26:27.548Z,23.93
2017-09-24T11:28:55.059Z,24.63
2017-09-24T11:31:22.546Z,24.20
2017-09-24T11:33:50.465Z,25.87
2017-09-24T11:36:17.973Z,23.47
2017-09-24T11:38:45.478Z,21.47
2017-09-24T11:41:12.962Z,22.63
2017-09-24T11:43:40.450Z,19.67
2017-09-24T11:46:07.958Z,19.47
2017-09-24T11:48:36.297Z,19.50
2017-09-24T11:51:05.494Z,18.77
2017-09-24T11:53:33.026Z,18.00
2017-09-24T11:56:00.616Z,16.97
2017-09-24T11:58:28.111Z,17.10
2017-09-24T12:00:55.617Z,17.50
2017-09-24T12:03:24.067Z,15.90
2017-09-24T12:05:51.971Z,15.43
2017-09-24T12:08:20.462Z,17.53
2017-09-24T12:10:48.606Z,17.20
2017-09-24T12:13:16.488Z,16.30
2017-09-24T12:15:45.488Z,17.47
2017-09-24T12:18:13.294Z,15.53
2017-09-24T12:20:47.623Z,16.13
2017-09-24T12:23:15.144Z,15.90
2017-09-24T12:25:42.718Z,18.40
2017-09-24T12:28:10.219Z,14.60
2017-09-24T12:30:39.244Z,17.17
2017-09-24T12:33:07.910Z,15.33
2017-09-24T12:35:35.429Z,16.17
2017-09-24T12:38:02.926Z,15.27
2017-09-24T12:40:30.446Z,14.77
2017-09-24T12:42:57.946Z,14.30
2017-09-24T12:45:26.071Z,15.00
2017-09-24T12:47:58.184Z,16.87
2017-09-24T12:50:25.759Z,15.47
2017-09-24T12:52:55.160Z,18.63
2017-09-24T12:55:27.582Z,15.23
2017-09-24T12:57:55.652Z,17.87
2017-09-24T13:00:23.692Z,17.03
2017-09-24T13:02:52.511Z,18.23
2017-09-24T13:05:20.145Z,18.80
2017-09-24T13:07:48.982Z,19.60
2017-09-24T13:10:23.594Z,21.57
2017-09-24T13:12:52.037Z,20.47
2017-09-24T13:15:22.685Z,19.40
2017-09-24T13:17:51.106Z,21.63
2017-09-24T13:20:18.766Z,18.17
2017-09-24T13:22:48.808Z,19.03
2017-09-24T13:25:16.469Z,18.77
2017-09-24T13:27:44.948Z,18.90
2017-09-24T13:30:14.642Z,19.13
2017-09-24T13:32:42.240Z,17.80
2017-09-24T13:35:09.962Z,20.03
2017-09-24T13:37:39.989Z,20.30
2017-09-24T13:41:33.424Z,18.53
2017-09-24T13:44:02.595Z,19.57
2017-09-24T13:46:32.622Z,19.33
2017-09-24T13:49:08.707Z,18.50
2017-09-24T13:51:42.765Z,16.20
2017-09-24T13:54:13.317Z,15.80
2017-09-24T13:56:42.172Z,15.70
2017-09-24T13:59:12.866Z,14.57
2017-09-24T14:01:41.041Z,13.87
2017-09-24T14:04:09.400Z,16.50
2017-09-24T14:06:37.015Z,14.90
2017-09-24T14:09:04.570Z,16.07
2017-09-24T14:11:32.117Z,16.80
2017-09-24T14:14:07.952Z,18.30
2017-09-24T14:16:35.655Z,16.80
2017-09-24T14:19:03.317Z,15.90
2017-09-24T14:21:32.662Z,14.90
2017-09-24T14:24:04.501Z,16.60
2017-09-24T14:26:49.869Z,15.50
2017-09-24T14:29:21.703Z,13.73
2017-09-24T14:31:49.364Z,14.27
2017-09-24T14:34:23.952Z,14.13
2017-09-24T14:36:52.437Z,14.00
2017-09-24T14:39:21.608Z,14.10
2017-09-24T14:41:51.182Z,15.17
2017-09-24T14:44:18.726Z,15.63
2017-09-24T14:46:46.752Z,15.90
2017-09-24T14:49:18.346Z,16.17
2017-09-24T14:51:48.069Z,16.40
2017-09-24T14:54:18.896Z,15.73
2017-09-24T14:56:47.714Z,15.47
2017-09-24T14:59:19.928Z,16.57
2017-09-24T15:01:47.656Z,16.83
2017-09-24T15:04:23.065Z,17.77
2017-09-24T15:06:51.827Z,15.20
2017-09-24T15:09:19.520Z,16.00
2017-09-24T15:11:47.296Z,15.10
2017-09-24T15:14:20.355Z,14.90
2017-09-24T15:16:48.018Z,14.70
2017-09-24T15:19:20.960Z,15.93
2017-09-24T15:21:48.594Z,15.03
2017-09-24T15:24:16.526Z,15.83
2017-09-24T15:26:45.066Z,14.17
2017-09-24T15:29:12.591Z,15.57
2017-09-24T15:31:40.142Z,15.80
2017-09-24T15:34:07.630Z,14.87
2017-09-24T15:36:36.318Z,13.20
2017-09-24T15:39:04.253Z,15.00
2017-09-24T15:41:31.783Z,12.70
2017-09-24T15:44:16.992Z,14.20
2017-09-24T15:46:44.506Z,15.67
2017-09-24T15:49:12.034Z,14.63
2017-09-24T15:51:39.921Z,14.93
2017-09-24T15:54:07.439Z,17.37
2017-09-24T15:56:34.923Z,15.77
2017-09-24T15:59:05.549Z,17.20
2017-09-24T16:01:33.047Z,14.97
2017-09-24T16:04:02.580Z,13.90
2017-09-24T16:06:30.087Z,14.03
2017-09-24T16:08:57.693Z,13.70
2017-09-24T16:11:25.231Z,13.73
2017-09-24T16:13:53.671Z,12.27
2017-09-24T16:16:21.158Z,13.60
2017-09-24T16:18:48.673Z,12.83
2017-09-24T16:21:16.566Z,12.23
2017-09-24T16:23:45.010Z,12.57
2017-09-24T16:26:12.507Z,11.33
2017-09-24T16:28:40.030Z,12.00
2017-09-24T16:31:07.532Z,12.83
2017-09-24T16:33:35.133Z,11.90
2017-09-24T16:36:05.564Z,10.97
2017-09-24T16:38:33.106Z,11.40
2017-09-24T16:41:01.560Z,12.17
2017-09-24T16:43:30.801Z,11.67
2017-09-24T16:45:58.278Z,11.53
2017-09-24T16:48:26.178Z,11.70
2017-09-24T16:50:53.711Z,10.37
2017-09-24T16:53:21.234Z,11.60
2017-09-24T16:55:48.742Z,13.00
2017-09-24T16:58:18.280Z,11.80
2017-09-24T17:00:45.856Z,11.83
2017-09-24T17:03:13.346Z,12.20
2017-09-24T17:05:40.854Z,13.23
2017-09-24T17:08:08.346Z,12.10
2017-09-24T17:10:37.012Z,14.17
2017-09-24T17:13:04.549Z,12.53
2017-09-24T17:15:32.081Z,13.67
2017-09-24T17:17:59.619Z,12.07
2017-09-24T17:20:27.111Z,13.47
2017-09-24T17:22:54.704Z,13.77
2017-09-24T17:25:22.231Z,14.53
2017-09-24T17:27:49.734Z,14.37
2017-09-24T17:30:17.903Z,12.57
2017-09-24T17:32:47.409Z,11.87
2017-09-24T17:35:15.377Z,12.40
2017-09-24T17:37:44.128Z,11.10
2017-09-24T17:40:13.386Z,10.20
2017-09-24T17:42:40.932Z,10.43
2017-09-24T17:45:08.479Z,9.40
2017-09-24T17:47:35.990Z,9.97
2017-09-24T17:50:03.486Z,12.20
2017-09-24T17:52:30.988Z,15.53
2017-09-24T17:54:58.499Z,14.27
2017-09-24T17:57:30.093Z,16.70
2017-09-24T17:59:57.606Z,18.47
2017-09-24T18:02:25.126Z,19.00
2017-09-24T18:04:52.626Z,16.50
2017-09-24T18:07:22.064Z,16.37
2017-09-24T18:09:49.596Z,16.77
2017-09-24T18:12:17.992Z,17.40
2017-09-24T18:14:45.967Z,15.83
2017-09-24T18:17:13.472Z,13.37
2017-09-24T18:19:41.277Z,12.97
2017-09-24T18:24:41.834Z,11.90
2017-09-24T18:27:09.728Z,12.57
2017-09-24T18:29:38.023Z,15.07
2017-09-24T18:32:07.513Z,14.20
2017-09-24T18:34:35.738Z,13.40
2017-09-24T18:37:03.283Z,17.43
2017-09-24T18:39:30.761Z,20.17
2017-09-24T18:42:04.892Z,16.77
2017-09-24T18:44:37.547Z,17.00
2017-09-24T18:47:07.505Z,14.50
2017-09-24T18:49:38.475Z,14.63
2017-09-24T18:52:12.138Z,14.13
2017-09-24T18:54:40.399Z,15.20
2017-09-24T18:57:07.997Z,15.10
2017-09-24T18:59:35.531Z,13.90
2017-09-24T19:02:03.018Z,17.93
2017-09-24T19:04:31.842Z,18.33
2017-09-24T19:06:59.402Z,18.20
2017-09-24T19:09:26.950Z,17.97
2017-09-24T19:11:55.404Z,18.00
2017-09-24T19:14:22.898Z,18.13
2017-09-24T19:16:52.782Z,17.13
2017-09-24T19:19:20.473Z,17.53
2017-09-24T19:21:48.115Z,16.63
2017-09-24T19:24:16.005Z,17.20
2017-09-24T19:26:46.058Z,19.00
2017-09-24T19:29:14.926Z,18.20
2017-09-24T19:31:42.618Z,20.73
2017-09-24T19:34:11.608Z,16.27
2017-09-24T19:36:39.135Z,15.00
2017-09-24T19:39:06.669Z,18.07
2017-09-24T19:41:34.576Z,16.50
2017-09-24T19:44:02.069Z,15.60
2017-09-24T19:46:29.600Z,20.27
2017-09-24T19:48:59.719Z,20.60
2017-09-24T19:51:27.359Z,19.00
2017-09-24T19:53:54.923Z,18.87
2017-09-24T19:56:24.402Z,20.70
2017-09-24T19:58:52.702Z,19.55
2017-09-24T20:01:20.315Z,19.92
2017-09-24T20:03:50.991Z,17.80
2017-09-24T20:06:18.555Z,16.97
2017-09-24T20:08:49.327Z,16.60
2017-09-24T20:11:16.848Z,17.30
2017-09-24T20:13:46.170Z,17.87
2017-09-24T20:16:13.775Z,16.58
2017-09-24T20:18:42.359Z,16.87
2017-09-24T20:21:09.892Z,16.50
2017-09-24T20:23:38.547Z,17.00
2017-09-24T20:26:09.692Z,16.02
2017-09-24T20:28:37.212Z,15.52
2017-09-24T20:31:05.598Z,17.27
2017-09-24T20:33:34.182Z,17.90
2017-09-24T20:36:03.657Z,17.20
2017-09-24T20:38:31.698Z,17.87
2017-09-24T20:41:00.851Z,18.80
2017-09-24T20:43:37.997Z,16.70
2017-09-24T20:46:05.915Z,17.55
2017-09-24T20:48:34.514Z,19.33
2017-09-24T20:51:02.036Z,19.75
2017-09-24T20:53:29.562Z,20.95
2017-09-24T20:55:57.088Z,20.83
2017-09-24T20:58:24.588Z,20.45
2017-09-24T21:00:52.505Z,21.02
2017-09-24T21:03:20.049Z,22.62
2017-09-24T21:05:47.624Z,19.90
2017-09-24T21:08:18.171Z,20.27
2017-09-24T21:10:47.650Z,18.73
2017-09-24T21:13:15.987Z,18.92
2017-09-24T21:15:43.965Z,18.55
2017-09-24T21:18:16.663Z,18.85
2017-09-24T21:20:44.190Z,17.75
2017-09-24T21:23:12.111Z,17.23
2017-09-24T21:25:39.951Z,17.10
2017-09-24T21:28:07.462Z,17.95
2017-09-24T21:30:35.801Z,18.27
2017-09-24T21:33:04.137Z,20.48
2017-09-24T21:35:32.056Z,21.70
2017-09-24T21:37:59.574Z,21.08
2017-09-24T21:40:28.066Z,19.87
2017-09-24T21:42:57.531Z,18.83
2017-09-24T21:45:25.452Z,19.55
2017-09-24T21:47:52.974Z,19.33
2017-09-24T21:50:22.963Z,18.85
2017-09-24T21:52:51.497Z,19.60
2017-09-24T21:55:22.974Z,21.05
2017-09-24T21:57:53.061Z,21.17
2017-09-24T22:00:25.655Z,19.62
2017-09-24T22:07:00.022Z,19.48
2017-09-24T22:09:30.818Z,20.08
2017-09-24T22:12:10.287Z,22.40
2017-09-24T22:14:38.011Z,23.00
2017-09-24T22:17:10.020Z,21.42
2017-09-24T22:19:40.351Z,22.48
2017-09-24T22:22:13.820Z,21.17
2017-09-24T22:24:41.360Z,20.50
2017-09-24T22:27:23.462Z,20.25
2017-09-24T22:30:01.612Z,21.90
2017-09-24T22:32:31.392Z,21.67
2017-09-24T22:35:02.215Z,21.30
2017-09-24T22:37:38.315Z,21.05
2017-09-24T22:42:47.135Z,22.00
2017-09-24T22:45:19.178Z,21.20
2017-09-24T22:47:50.929Z,19.95
2017-09-24T22:50:19.837Z,31.67
2017-09-24T22:52:49.878Z,33.08
2017-09-24T22:55:19.431Z,26.50
2017-09-24T22:57:55.708Z,24.98
2017-09-24T23:00:23.359Z,26.75
2017-09-24T23:02:54.311Z,35.53
2017-09-24T23:05:27.518Z,26.87
2017-09-24T23:10:37.497Z,29.30
2017-09-24T23:15:42.792Z,31.58
2017-09-24T23:18:10.646Z,35.40
2017-09-24T23:23:20.462Z,34.28
2017-09-24T23:25:47.974Z,35.40
2017-09-24T23:28:18.425Z,35.58
2017-09-24T23:30:47.746Z,36.67
2017-09-24T23:33:15.238Z,33.97
2017-09-24T23:35:42.810Z,34.72
2017-09-24T23:38:11.339Z,34.15
2017-09-24T23:40:38.906Z,31.67
2017-09-24T23:43:07.327Z,33.38
2017-09-24T23:45:34.846Z,31.25
2017-09-24T23:48:03.141Z,32.90
2017-09-24T23:50:31.886Z,31.58
2017-09-24T23:52:59.406Z,31.98
2017-09-24T23:55:28.962Z,33.72
2017-09-24T23:57:57.370Z,31.43
